Time;durP1;ratioP1;P1;durP2;ratioP2;P2;SDS_P1;SDS_P2;PMS_P1;PMS_P2;Temp;Humidity;BMP_temperature;BMP_pressure;BME280_temperature;BME280_humidity;BME280_pressure;Samples;Min_cycle;Max_cycle;Signal;HPM_P1;HPM_P2
2023/10/11 00:00:37;;;;;;;3.78;2.38;;;;;;;13.36;100.00;64359.50;5068620;28;20208;-55
2023/10/11 00:03:17;;;;;;;4.10;2.03;;;;;;;13.44;100.00;64368.81;5068569;28;20224;-54
2023/10/11 00:05:45;;;;;;;4.65;2.58;;;;;;;13.45;100.00;64366.84;5069687;28;20207;-60
2023/10/11 00:08:39;;;;;;;3.50;2.40;;;;;;;13.51;100.00;64375.41;5068584;28;20213;-54
2023/10/11 00:11:00;;;;;;;2.50;1.98;;;;;;;13.58;100.00;64383.66;5070243;28;20212;-55
2023/10/11 00:13:35;;;;;;;3.22;2.20;;;;;;;13.72;100.00;64396.47;5073389;28;20590;-54
2023/10/11 00:16:08;;;;;;;7.45;2.30;;;;;;;13.64;100.00;64387.16;5073165;28;20211;-54
2023/10/11 00:18:35;;;;;;;2.35;2.00;;;;;;;13.56;100.00;64378.38;5073200;28;20678;-54
2023/10/11 00:21:10;;;;;;;4.30;2.70;;;;;;;13.49;100.00;64373.78;5073166;28;20204;-54
2023/10/11 00:23:36;;;;;;;3.47;2.10;;;;;;;13.49;100.00;64371.78;5072153;28;20212;-53
2023/10/11 00:26:02;;;;;;;5.75;2.25;;;;;;;13.45;100.00;64366.84;5071678;28;20189;-54
2023/10/11 00:28:31;;;;;;;4.35;2.58;;;;;;;13.47;100.00;64371.56;5073035;28;20621;-53
2023/10/11 00:31:00;;;;;;;3.47;2.38;;;;;;;13.63;100.00;64384.06;5071797;28;20287;-53
2023/10/11 00:33:27;;;;;;;3.83;2.40;;;;;;;13.83;100.00;64410.56;5071946;28;20205;-54
2023/10/11 00:35:54;;;;;;;4.43;2.55;;;;;;;13.82;100.00;64406.91;5073007;28;20193;-54
2023/10/11 00:38:42;;;;;;;2.85;2.38;;;;;;;13.52;100.00;64373.97;5072796;28;20213;-54
2023/10/11 00:41:18;;;;;;;4.57;2.53;;;;;;;13.35;100.00;64358.41;5072829;28;20280;-54
2023/10/11 00:43:54;;;;;;;3.15;2.20;;;;;;;13.22;100.00;64344.13;5072830;28;20217;-56
2023/10/11 00:49:34;;;;;;;4.70;2.00;;;;;;;13.19;100.00;64341.38;5063815;28;20391;-54
2023/10/11 00:52:04;;;;;;;2.60;2.40;;;;;;;13.22;100.00;64339.63;5071484;28;20200;-53
2023/10/11 00:54:30;;;;;;;4.97;2.13;;;;;;;13.33;100.00;64351.69;5071818;28;20281;-55
2023/10/11 00:56:56;;;;;;;3.78;2.40;;;;;;;13.33;100.00;64356.75;5072920;28;20296;-55
2023/10/11 00:59:22;;;;;;;3.22;2.50;;;;;;;13.24;100.00;64344.34;5072675;28;20384;-53
2023/10/11 01:01:51;;;;;;;4.27;2.23;;;;;;;13.11;100.00;64329.53;5072835;28;20266;-61
2023/10/11 01:04:18;;;;;;;2.92;2.00;;;;;;;12.67;100.00;64284.31;5070900;28;20303;-54
2023/10/11 01:06:47;;;;;;;3.50;1.85;;;;;;;13.02;100.00;64322.72;5071284;28;20201;-54
2023/10/11 01:09:17;;;;;;;3.17;2.13;;;;;;;12.92;100.00;64309.22;5071416;28;20217;-52
2023/10/11 01:11:43;;;;;;;2.60;2.17;;;;;;;12.76;100.00;64294.19;5072289;28;20721;-53
2023/10/11 01:14:11;;;;;;;3.83;2.20;;;;;;;12.75;100.00;64290.56;5072552;28;20208;-53
2023/10/11 01:16:37;;;;;;;3.00;2.15;;;;;;;12.73;100.00;64290.34;5072257;28;20695;-53
2023/10/11 01:19:11;;;;;;;3.72;2.42;;;;;;;12.71;100.00;64285.63;5072243;28;20216;-53
2023/10/11 01:21:37;;;;;;;4.15;2.63;;;;;;;12.63;100.00;64283.00;5072382;28;20215;-53
2023/10/11 01:24:08;;;;;;;3.88;3.10;;;;;;;12.55;100.00;64271.16;5070118;28;20201;-52
2023/10/11 01:26:34;;;;;;;4.20;3.13;;;;;;;12.83;100.00;64301.84;5070935;28;20212;-54
2023/10/11 01:29:01;;;;;;;3.78;2.88;;;;;;;12.73;100.00;64288.34;5072003;28;20299;-52
2023/10/11 01:31:32;;;;;;;8.15;3.47;;;;;;;12.68;100.00;64282.88;5072296;28;20204;-51
2023/10/11 01:33:58;;;;;;;7.25;3.45;;;;;;;12.47;100.00;64267.97;5072199;28;20243;-51
2023/10/11 01:36:26;;;;;;;3.47;2.70;;;;;;;12.31;100.00;64245.38;5071941;28;20228;-51
2023/10/11 01:38:52;;;;;;;12.43;3.13;;;;;;;12.31;100.00;64245.38;5070647;28;20295;-51
2023/10/11 01:41:28;;;;;;;4.20;3.43;;;;;;;12.20;100.00;64233.31;5072089;28;20280;-55
2023/10/11 01:43:56;;;;;;;4.10;3.20;;;;;;;12.29;100.00;64245.72;5070764;28;20231;-52
2023/10/11 01:46:27;;;;;;;4.50;3.20;;;;;;;12.49;100.00;64264.56;5072032;28;20261;-51
2023/10/11 01:48:56;;;;;;;5.65;3.45;;;;;;;12.47;100.00;64262.38;5071869;28;20217;-53
2023/10/11 01:51:28;;;;;;;4.30;3.37;;;;;;;12.52;100.00;64265.34;5072056;28;20258;-53
2023/10/11 01:53:59;;;;;;;3.50;3.17;;;;;;;12.47;100.00;64262.94;5071721;28;20250;-53
2023/10/11 01:56:26;;;;;;;4.53;3.70;;;;;;;12.51;100.00;64264.78;5071675;28;20690;-51
2023/10/11 01:59:00;;;;;;;7.60;3.33;;;;;;;12.43;100.00;64255.47;5071843;28;20258;-52
2023/10/11 02:01:30;;;;;;;5.47;3.53;;;;;;;12.42;100.00;64254.38;5071771;28;20223;-52
2023/10/11 02:04:03;;;;;;;3.80;3.07;;;;;;;12.44;100.00;64259.09;5071754;28;20211;-51
2023/10/11 02:06:32;;;;;;;5.07;3.60;;;;;;;12.49;100.00;64264.56;5070310;28;20213;-52
2023/10/11 02:08:58;;;;;;;3.77;3.00;;;;;;;12.59;100.00;64276.09;5071471;28;20226;-51
2023/10/11 02:11:25;;;;;;;7.20;3.60;;;;;;;12.72;100.00;64284.75;5071695;28;20248;-51
2023/10/11 02:13:52;;;;;;;4.65;3.35;;;;;;;12.96;100.00;64313.03;5071372;28;20192;-52
2023/10/11 02:16:18;;;;;;;4.90;2.83;;;;;;;13.07;100.00;64325.69;5071229;28;20208;-52
2023/10/11 02:18:51;;;;;;;5.00;3.20;;;;;;;13.06;100.00;64324.03;5071467;28;20185;-53
2023/10/11 02:21:19;;;;;;;5.23;3.33;;;;;;;12.91;100.00;64305.56;5071197;28;20257;-52
2023/10/11 02:23:46;;;;;;;5.22;3.63;;;;;;;12.95;100.00;64317.56;5069999;28;20193;-54
2023/10/11 02:26:14;;;;;;;4.40;3.78;;;;;;;12.99;100.00;64316.34;5071180;28;20205;-59
2023/10/11 02:28:40;;;;;;;8.43;3.88;;;;;;;13.09;100.00;64327.88;5071253;28;20207;-54
2023/10/11 02:31:07;;;;;;;4.80;3.60;;;;;;;13.01;100.00;64321.59;5069876;28;20681;-55
2023/10/11 02:33:33;;;;;;;6.00;3.83;;;;;;;12.88;100.00;64307.34;5071166;28;20193;-55
2023/10/11 02:36:08;;;;;;;10.07;3.58;;;;;;;12.86;100.00;64305.16;5069859;28;20211;-54
2023/10/11 02:38:47;;;;;;;9.68;4.40;;;;;;;12.88;100.00;64304.28;5070999;28;20200;-54
2023/10/11 02:41:20;;;;;;;11.20;4.27;;;;;;;12.79;100.00;64297.47;5071014;28;20645;-51
2023/10/11 02:43:49;;;;;;;6.03;3.77;;;;;;;12.65;100.00;64280.13;5071008;28;20311;-52
2023/10/11 02:46:18;;;;;;;8.88;3.78;;;;;;;12.55;100.00;64268.63;5071020;28;20200;-52
2023/10/11 02:48:48;;;;;;;6.60;3.80;;;;;;;12.43;100.00;64258.53;5069678;28;20693;-51
2023/10/11 02:51:17;;;;;;;4.72;3.42;;;;;;;12.42;100.00;64256.91;5070967;28;20258;-52
2023/10/11 02:53:45;;;;;;;5.10;3.75;;;;;;;12.37;100.00;64251.41;5071038;28;20724;-52
2023/10/11 02:56:11;;;;;;;5.20;3.45;;;;;;;12.51;100.00;64266.75;5069418;28;20204;-51
2023/10/11 02:58:40;;;;;;;5.83;3.93;;;;;;;12.29;100.00;64243.19;5070714;28;20220;-52
2023/10/11 03:01:17;;;;;;;5.27;3.80;;;;;;;12.30;100.00;64241.22;5069292;28;20201;-52
2023/10/11 03:03:43;;;;;;;3.40;3.07;;;;;;;12.16;100.00;64225.88;5070787;28;20243;-55
2023/10/11 03:06:09;;;;;;;5.13;3.25;;;;;;;12.42;100.00;64256.91;5070856;28;20208;-57
2023/10/11 03:08:37;;;;;;;5.63;3.70;;;;;;;12.48;100.00;64264.00;5070833;28;20189;-54
2023/10/11 03:11:15;;;;;;;5.53;3.78;;;;;;;12.34;100.00;64245.59;5069274;28;20232;-54
2023/10/11 03:13:42;;;;;;;4.80;3.23;;;;;;;12.47;100.00;64262.94;5070801;28;20184;-54
2023/10/11 03:16:16;;;;;;;4.33;3.03;;;;;;;12.51;100.00;64264.22;5070450;28;20258;-54
2023/10/11 03:18:46;;;;;;;6.30;3.70;;;;;;;12.58;100.00;64274.97;5070447;28;20196;-54
2023/10/11 03:21:17;;;;;;;4.70;3.33;;;;;;;12.71;100.00;64288.69;5070410;28;20208;-52
2023/10/11 03:23:45;;;;;;;4.23;3.30;;;;;;;12.62;100.00;64278.84;5069124;28;20231;-53
2023/10/11 03:26:39;;;;;;;5.27;3.23;;;;;;;12.74;100.00;64291.44;5068900;28;20204;-52
2023/10/11 03:29:04;;;;;;;10.60;3.83;;;;;;;12.52;100.00;64268.41;5069863;28;20228;-52
2023/10/11 03:31:39;;;;;;;9.55;3.97;;;;;;;12.61;100.00;64277.72;5070542;28;20215;-52
2023/10/11 03:34:14;;;;;;;3.87;3.13;;;;;;;12.35;100.00;64247.25;5070340;28;20196;-52
2023/10/11 03:36:51;;;;;;;6.43;3.30;;;;;;;12.57;100.00;64273.88;5070201;28;20220;-52
2023/10/11 03:44:46;;;;;;;5.13;2.97;;;;;;;12.44;100.00;64257.09;5070456;28;20200;-53
2023/10/11 03:47:15;;;;;;;7.37;3.30;;;;;;;12.64;100.00;64278.50;5072475;28;20213;-52
2023/10/11 03:52:31;;;;;;;6.80;3.70;;;;;;;12.83;100.00;64299.31;5073544;28;20232;-51
2023/10/11 03:55:09;;;;;;;6.40;3.50;;;;;;;13.06;100.00;64327.13;5073061;28;20216;-52
2023/10/11 03:57:40;;;;;;;6.57;4.10;;;;;;;12.97;100.00;64316.69;5074048;28;20220;-51
2023/10/11 04:00:25;;;;;;;6.87;3.00;;;;;;;13.02;100.00;64319.63;5073590;28;20215;-52
2023/10/11 04:02:56;;;;;;;5.83;3.23;;;;;;;13.04;100.00;64322.41;5073019;28;20266;-51
2023/10/11 04:05:22;;;;;;;7.07;3.20;;;;;;;12.79;100.00;64297.47;5073413;28;20674;-52
2023/10/11 04:07:48;;;;;;;7.60;3.70;;;;;;;13.00;100.00;64317.44;5073597;28;20212;-52
2023/10/11 04:10:19;;;;;;;4.82;2.70;;;;;;;13.07;100.00;64328.22;5073302;28;20208;-51
2023/10/11 04:12:46;;;;;;;5.50;2.92;;;;;;;12.98;100.00;64312.72;5071851;28;20209;-54
2023/10/11 04:15:30;;;;;;;6.55;2.90;;;;;;;13.05;100.00;64326.00;5073278;28;20686;-54
2023/10/11 04:17:56;;;;;;;4.57;2.90;;;;;;;13.16;100.00;64338.09;5073592;28;20209;-56
2023/10/11 04:20:29;;;;;;;4.60;3.33;;;;;;;13.29;100.00;64352.34;5072081;28;20207;-57
2023/10/11 04:23:10;;;;;;;5.15;3.10;;;;;;;13.36;100.00;64357.53;5072053;28;20289;-55
2023/10/11 04:25:38;;;;;;;4.57;2.60;;;;;;;13.35;100.00;64358.41;5071707;28;20732;-55
2023/10/11 04:28:05;;;;;;;3.35;2.53;;;;;;;13.45;100.00;64369.91;5071898;28;20227;-55
2023/10/11 04:30:41;;;;;;;8.93;3.70;;;;;;;13.45;100.00;64369.38;5071732;28;20217;-55
2023/10/11 04:33:21;;;;;;;7.10;2.58;;;;;;;13.60;100.00;64382.75;5073019;28;20324;-55
2023/10/11 04:35:57;;;;;;;7.57;3.43;;;;;;;13.53;100.00;64375.09;5073004;28;20185;-57
2023/10/11 04:38:23;;;;;;;9.30;2.80;;;;;;;13.45;100.00;64366.84;5071427;28;20228;-55
2023/10/11 04:40:52;;;;;;;8.35;3.08;;;;;;;13.35;100.00;64358.94;5072787;28;20204;-54
2023/10/11 04:43:25;;;;;;;6.35;3.20;;;;;;;13.37;100.00;64358.59;5055380;28;20209;-56
2023/10/11 04:46:00;;;;;;;5.03;3.03;;;;;;;13.44;100.00;64368.81;5072891;28;20201;-54
2023/10/11 04:48:33;;;;;;;8.50;3.05;;;;;;;13.34;100.00;64352.25;5071485;28;20200;-58
2023/10/11 04:51:07;;;;;;;5.60;3.20;;;;;;;13.31;100.00;64351.47;5072761;28;20284;-55
2023/10/11 04:54:13;;;;;;;4.28;2.78;;;;;;;13.20;100.00;64339.97;5072556;28;20208;-56
2023/10/11 05:04:27;;;;;;;4.03;2.70;;;;;;;13.06;100.00;64324.03;5072452;28;20197;-54
2023/10/11 05:06:53;;;;;;;4.88;2.80;;;;;;;13.06;100.00;64327.13;5072164;28;20208;-53
2023/10/11 05:17:31;;;;;;;4.20;3.17;;;;;;;13.33;100.00;64356.75;5071582;28;20702;-53
2023/10/11 05:20:20;;;;;;;4.88;2.90;;;;;;;13.12;100.00;64330.63;5069997;28;20212;-52
2023/10/11 05:27:47;;;;;;;4.90;3.03;;;;;;;13.20;100.00;64341.94;5071915;28;20208;-52
2023/10/11 05:30:26;;;;;;;5.10;2.50;;;;;;;13.26;100.00;64349.06;5072026;28;20237;-52
2023/10/11 05:36:14;;;;;;;8.67;2.53;;;;;;;13.38;100.00;64364.22;5072309;28;20208;-52
2023/10/11 05:52:14;;;;;;;4.03;2.40;;;;;;;13.59;99.20;64379.13;5078007;22;20270;-52
2023/10/11 05:54:40;;;;;;;7.13;3.22;;;;;;;13.43;100.00;64362.13;5071784;28;20209;-52
2023/10/11 05:57:06;;;;;;;5.28;3.20;;;;;;;13.47;100.00;64369.03;5071659;28;20209;-52
2023/10/11 05:59:32;;;;;;;6.35;3.33;;;;;;;13.62;99.21;64387.47;5070551;28;20579;-51
2023/10/11 06:01:59;;;;;;;8.13;4.20;;;;;;;13.69;100.00;64395.19;5070535;28;20205;-52
2023/10/11 06:04:25;;;;;;;7.78;3.70;;;;;;;13.84;98.98;64406.56;5071951;28;20200;-55
2023/10/11 06:06:57;;;;;;;7.68;3.28;;;;;;;14.06;97.76;64430.72;5072034;28;20200;-55
2023/10/11 06:09:30;;;;;;;9.23;3.90;;;;;;;14.00;98.16;64427.22;5071664;28;20212;-55
2023/10/11 06:11:57;;;;;;;5.97;3.80;;;;;;;14.19;97.91;64447.56;5070365;28;20266;-54
2023/10/11 06:14:23;;;;;;;7.47;3.72;;;;;;;14.15;98.11;64440.63;5071792;28;20204;-54
2023/10/11 06:17:05;;;;;;;9.40;3.47;;;;;;;14.31;96.76;64458.22;5071964;28;20209;-54
2023/10/11 06:19:31;;;;;;;6.88;3.75;;;;;;;14.37;94.70;64466.78;5070742;28;20270;-55
2023/10/11 06:21:57;;;;;;;10.07;3.72;;;;;;;14.32;94.98;64461.31;5071405;28;20295;-53
2023/10/11 06:24:30;;;;;;;5.40;3.47;;;;;;;14.08;95.91;64435.47;5071366;28;20235;-54
2023/10/11 06:26:56;;;;;;;6.25;3.70;;;;;;;14.34;94.56;64461.53;5075944;22;20217;-54
2023/10/11 06:29:23;;;;;;;10.93;3.95;;;;;;;14.36;95.33;64466.25;5071087;28;20223;-53
2023/10/11 06:31:52;;;;;;;8.23;3.72;;;;;;;14.52;93.31;64483.28;5070006;28;20297;-52
2023/10/11 06:36:51;;;;;;;8.77;3.15;;;;;;;14.48;93.29;64481.97;5070980;28;20286;-54
2023/10/11 06:41:58;;;;;;;7.15;3.03;;;;;;;14.39;93.11;64469.00;5077326;22;20221;-53
2023/10/11 06:44:24;;;;;;;5.95;3.15;;;;;;;14.53;92.91;64484.94;5070899;28;20364;-53
2023/10/11 06:46:50;;;;;;;11.52;3.50;;;;;;;14.59;92.70;64488.44;5070876;28;20240;-54
2023/10/11 06:49:17;;;;;;;8.77;3.22;;;;;;;14.57;91.66;64488.78;5069576;28;20224;-52
2023/10/11 06:51:43;;;;;;;9.25;3.28;;;;;;;14.59;91.55;64491.53;5070937;28;20204;-50
2023/10/11 06:54:08;;;;;;;5.72;3.03;;;;;;;14.68;90.00;64503.41;5070908;28;20196;-51
2023/10/11 06:56:35;;;;;;;7.47;2.95;;;;;;;14.59;89.98;64494.06;5070782;28;20283;-52
2023/10/11 06:59:00;;;;;;;6.22;3.22;;;;;;;14.50;90.15;64478.56;5070911;28;20201;-51
2023/10/11 07:01:30;;;;;;;6.90;3.67;;;;;;;14.68;90.16;64498.88;5070912;28;20640;-52
2023/10/11 07:03:59;;;;;;;6.28;3.10;;;;;;;14.98;87.85;64534.41;5070096;28;20670;-52
2023/10/11 07:06:25;;;;;;;11.20;3.63;;;;;;;15.26;84.75;64564.63;5070667;28;20217;-51
2023/10/11 07:08:50;;;;;;;4.30;3.20;;;;;;;15.35;83.61;64574.50;5070536;28;20548;-52
2023/10/11 07:11:41;;;;;;;5.32;3.72;;;;;;;15.36;80.65;64577.63;5069522;28;20735;-54
2023/10/11 07:14:14;;;;;;;5.65;3.90;;;;;;;15.35;81.73;64576.53;5070790;28;20223;-54
2023/10/11 07:16:45;;;;;;;7.20;3.80;;;;;;;15.51;82.31;64589.63;5070670;28;20216;-54
2023/10/11 07:19:11;;;;;;;8.43;4.03;;;;;;;15.57;80.29;64601.28;5070488;28;20212;-54
2023/10/11 07:24:33;;;;;;;6.95;4.13;;;;;;;16.01;81.62;64643.50;5074792;28;20204;-54
2023/10/11 07:27:09;;;;;;;7.85;3.90;;;;;;;16.27;79.13;64675.22;5074107;28;20204;-55
2023/10/11 07:29:42;;;;;;;7.80;3.63;;;;;;;16.26;80.18;64674.13;5074090;28;20307;-53
2023/10/11 07:32:09;;;;;;;8.98;3.40;;;;;;;16.38;79.58;64684.78;5073983;28;20295;-56
2023/10/11 07:34:37;;;;;;;6.65;4.35;;;;;;;16.53;75.48;64703.88;5074111;28;20239;-52
2023/10/11 07:37:05;;;;;;;12.07;4.30;;;;;;;16.60;76.00;64711.56;5073943;28;20214;-52
2023/10/11 07:39:35;;;;;;;10.38;3.75;;;;;;;16.30;77.25;64678.50;5074125;28;20575;-53
2023/10/11 07:42:08;;;;;;;6.10;3.97;;;;;;;16.48;75.74;64700.88;5073921;28;20300;-55
2023/10/11 07:44:38;;;;;;;7.50;4.30;;;;;;;16.71;75.30;64723.69;5072630;28;20247;-53
2023/10/11 07:47:15;;;;;;;6.72;4.13;;;;;;;16.69;75.41;64723.47;5072538;28;20201;-52
2023/10/11 07:49:42;;;;;;;8.73;4.15;;;;;;;16.81;74.48;64731.59;5072613;28;20224;-53
2023/10/11 07:52:08;;;;;;;10.77;5.13;;;;;;;17.10;72.31;64765.53;5072590;28;20330;-52
2023/10/11 07:54:36;;;;;;;10.48;4.55;;;;;;;17.54;71.19;64814.59;5072475;28;20216;-52
2023/10/11 07:57:04;;;;;;;5.90;4.10;;;;;;;17.85;71.03;64845.66;5073709;28;20215;-52
2023/10/11 07:59:30;;;;;;;9.30;4.28;;;;;;;18.07;69.11;64872.47;5072276;28;20205;-53
2023/10/11 08:01:59;;;;;;;11.60;3.65;;;;;;;18.35;67.23;64900.78;5072382;28;20209;-53
2023/10/11 08:04:28;;;;;;;11.05;3.78;;;;;;;18.58;66.60;64930.75;5079447;22;20767;-55
2023/10/11 08:07:03;;;;;;;6.57;4.25;;;;;;;18.84;65.47;64953.75;5073528;28;20711;-55
2023/10/11 08:12:25;;;;;;;6.15;3.50;;;;;;;19.05;63.39;64976.94;5060308;28;20220;-54
2023/10/11 08:14:53;;;;;;;9.27;4.10;;;;;;;19.40;61.90;65015.03;5073945;28;20217;-53
2023/10/11 08:17:20;;;;;;;9.25;4.38;;;;;;;19.60;62.11;65037.66;5072035;28;20204;-52
2023/10/11 08:19:47;;;;;;;5.13;3.75;;;;;;;19.73;58.64;65052.03;5073601;28;20278;-58
2023/10/11 08:22:14;;;;;;;7.13;4.43;;;;;;;19.54;58.05;65033.03;5073345;28;20205;-52
2023/10/11 08:24:52;;;;;;;5.50;4.07;;;;;;;19.62;59.97;65042.44;5073441;28;20207;-53
2023/10/11 08:30:07;;;;;;;14.05;4.00;;;;;;;20.37;58.05;65124.19;5073471;28;20644;-55
2023/10/11 08:32:37;;;;;;;6.38;3.90;;;;;;;20.54;56.23;65140.97;5072953;28;20204;-62
2023/10/11 08:35:10;;;;;;;5.15;3.50;;;;;;;20.92;55.67;65183.00;5073733;28;20189;-51
2023/10/11 08:37:38;;;;;;;7.80;3.15;;;;;;;20.93;55.87;65181.53;5073454;28;20258;-54
2023/10/11 08:40:20;;;;;;;5.03;3.40;;;;;;;21.47;53.46;65245.81;5073443;28;20212;-53
2023/10/11 08:42:52;;;;;;;9.85;4.35;;;;;;;21.66;52.48;65264.28;5071865;28;20204;-52
2023/10/11 08:45:59;;;;;;;7.03;3.70;;;;;;;21.77;53.04;65275.34;5072835;28;20233;-52
2023/10/11 08:48:27;;;;;;;6.82;3.22;;;;;;;21.84;55.32;65286.22;5072775;28;20234;-52
2023/10/11 08:50:54;;;;;;;12.15;3.92;;;;;;;22.01;52.08;65299.34;5072577;28;20702;-53
2023/10/11 08:53:21;;;;;;;6.20;3.42;;;;;;;21.99;52.76;65299.72;5072728;28;20209;-53
2023/10/11 08:55:55;;;;;;;3.92;3.20;;;;;;;22.15;49.96;65317.41;5072743;28;20682;-55
2023/10/11 08:58:23;;;;;;;7.72;4.00;;;;;;;22.43;57.63;65348.97;5072878;28;20244;-54
2023/10/11 09:00:54;;;;;;;8.88;4.25;;;;;;;22.72;52.00;65380.00;5072852;28;20581;-54
2023/10/11 09:03:23;;;;;;;6.07;4.07;;;;;;;22.53;54.90;65360.03;5071077;28;20240;-54
2023/10/11 09:05:58;;;;;;;7.22;4.32;;;;;;;23.27;49.21;65441.44;5072583;28;20670;-51
2023/10/11 09:08:32;;;;;;;17.05;4.05;;;;;;;23.39;49.18;65453.66;5072583;28;20200;-52
2023/10/11 09:13:53;;;;;;;5.10;2.92;;;;;;;23.98;53.90;65516.47;5072682;28;20211;-52
2023/10/11 09:16:37;;;;;;;6.53;3.80;;;;;;;24.21;49.81;65538.88;5072430;28;20201;-50
2023/10/11 09:19:09;;;;;;;5.40;3.80;;;;;;;24.32;46.94;65556.75;5072771;28;20219;-54
2023/10/11 09:21:35;;;;;;;4.53;3.70;;;;;;;24.20;44.62;65540.88;5072491;28;20606;-52
2023/10/11 09:24:23;;;;;;;5.78;3.47;;;;;;;24.47;44.29;65575.41;5072522;28;20211;-51
2023/10/11 09:27:12;;;;;;;6.53;3.63;;;;;;;24.41;45.88;65566.75;5070812;28;20283;-51
2023/10/11 09:29:38;;;;;;;6.88;3.40;;;;;;;24.41;49.29;65563.63;5072232;28;20223;-52
2023/10/11 09:32:05;;;;;;;13.13;4.38;;;;;;;24.62;43.13;65589.50;5071951;28;20223;-55
2023/10/11 09:34:31;;;;;;;5.97;3.78;;;;;;;24.32;43.98;65554.19;5072115;28;20219;-51
2023/10/11 09:36:59;;;;;;;5.35;3.60;;;;;;;24.15;45.09;65537.91;5072117;28;20212;-52
2023/10/11 09:39:29;;;;;;;5.50;3.58;;;;;;;24.42;44.55;65567.84;5072188;28;20296;-53
2023/10/11 09:42:04;;;;;;;5.82;4.10;;;;;;;24.02;46.11;65523.47;5070799;28;20706;-54
2023/10/11 09:44:44;;;;;;;4.80;3.40;;;;;;;23.01;49.25;65409.53;5071785;28;20196;-53
2023/10/11 09:47:16;;;;;;;4.88;3.63;;;;;;;23.85;47.99;65504.66;5071878;28;20246;-53
2023/10/11 09:49:43;;;;;;;3.25;2.90;;;;;;;24.47;46.00;65573.41;5072029;28;20250;-53
2023/10/11 09:52:16;;;;;;;7.43;3.67;;;;;;;24.47;46.07;65573.41;5071614;28;20225;-53
2023/10/11 09:54:43;;;;;;;8.60;3.50;;;;;;;24.55;43.13;65582.28;5072064;28;20207;-55
2023/10/11 09:57:35;;;;;;;6.15;3.95;;;;;;;24.56;45.82;65580.81;5071989;28;20212;-52
2023/10/11 10:00:14;;;;;;;8.48;4.10;;;;;;;24.25;43.53;65548.44;5070764;28;20720;-52
2023/10/11 10:02:46;;;;;;;5.10;4.15;;;;;;;24.81;42.91;65611.13;5071517;28;20212;-51
2023/10/11 10:05:13;;;;;;;3.97;3.42;;;;;;;24.92;42.83;65620.78;5071708;28;20205;-54
2023/10/11 10:10:06;;;;;;;5.47;3.42;;;;;;;23.91;47.36;65511.28;5071604;28;20606;-53
2023/10/11 10:12:43;;;;;;;4.47;3.47;;;;;;;23.94;44.26;65517.75;5071207;28;20200;-52
2023/10/11 10:15:15;;;;;;;10.20;4.00;;;;;;;24.78;43.13;65607.81;5069975;28;20360;-54
2023/10/11 10:17:56;;;;;;;5.32;3.10;;;;;;;25.35;42.27;65667.91;5069834;28;20255;-53
2023/10/11 10:20:33;;;;;;;8.73;3.35;;;;;;;25.20;40.19;65650.72;5071234;28;20638;-53
2023/10/11 10:23:14;;;;;;;4.20;3.05;;;;;;;25.22;40.70;65658.09;5071029;28;20209;-54
2023/10/11 10:26:13;;;;;;;6.65;3.05;;;;;;;25.43;40.81;65678.84;5071163;28;20261;-51
2023/10/11 10:28:57;;;;;;;5.15;3.35;;;;;;;25.57;42.70;65691.81;5071250;28;20561;-52
2023/10/11 10:31:24;;;;;;;5.95;3.40;;;;;;;25.82;42.17;65722.16;5071209;28;20212;-51
2023/10/11 10:34:05;;;;;;;4.38;2.75;;;;;;;25.42;39.90;65675.16;5071285;28;20261;-50
2023/10/11 10:36:31;;;;;;;4.90;3.35;;;;;;;25.65;40.96;65701.25;5070995;28;20235;-52
2023/10/11 10:39:36;;;;;;;4.25;3.30;;;;;;;25.26;39.37;65660.53;5071312;28;20556;-53
2023/10/11 10:42:12;;;;;;;6.10;3.22;;;;;;;24.41;40.30;65566.75;5067837;28;20303;-52
2023/10/11 10:44:50;;;;;;;4.65;2.95;;;;;;;24.55;40.26;65581.72;5070860;28;20291;-52
2023/10/11 10:47:24;;;;;;;4.55;2.63;;;;;;;24.44;41.07;65572.09;5069705;28;20216;-52
2023/10/11 10:49:53;;;;;;;3.17;2.65;;;;;;;24.64;42.88;65589.13;5071185;28;20591;-54
2023/10/11 10:52:26;;;;;;;4.40;2.80;;;;;;;25.00;40.21;65631.66;5071008;28;20209;-53
2023/10/11 10:55:03;;;;;;;6.18;2.72;;;;;;;25.48;41.49;65686.97;5071266;28;20564;-51
2023/10/11 10:57:55;;;;;;;8.38;3.10;;;;;;;25.44;40.37;65677.38;5068404;28;20251;-52
2023/10/11 11:00:25;;;;;;;6.97;2.38;;;;;;;25.76;39.43;65713.47;5070918;28;20203;-51
2023/10/11 11:02:52;;;;;;;3.85;3.05;;;;;;;26.14;40.43;65755.13;5069209;28;20210;-52
2023/10/11 11:05:24;;;;;;;4.65;2.50;;;;;;;26.27;40.08;65769.56;5070654;28;20193;-58
2023/10/11 11:07:50;;;;;;;5.65;3.03;;;;;;;26.00;40.27;65739.00;5070721;28;20287;-50
2023/10/11 11:10:20;;;;;;;5.05;2.90;;;;;;;26.53;38.84;65798.44;5069188;28;20630;-50
2023/10/11 11:12:48;;;;;;;4.97;3.40;;;;;;;25.43;39.81;65673.69;5070137;28;20254;-51
2023/10/11 11:15:20;;;;;;;7.25;3.92;;;;;;;25.49;40.65;65682.94;5070799;28;20646;-51
2023/10/11 11:17:48;;;;;;;3.83;3.03;;;;;;;25.38;39.77;65673.84;5069213;28;20212;-52
2023/10/11 11:22:52;;;;;;;4.28;2.85;;;;;;;25.01;41.78;65632.78;5070413;28;20236;-51
2023/10/11 11:28:06;;;;;;;5.60;3.20;;;;;;;25.36;40.65;65671.63;5069180;28;20227;-51
2023/10/11 11:30:35;;;;;;;4.43;3.72;;;;;;;25.37;40.37;65672.19;5070378;28;20266;-51
2023/10/11 11:33:13;;;;;;;5.88;2.88;;;;;;;25.21;41.28;65651.84;5070397;28;20208;-51
2023/10/11 11:35:52;;;;;;;7.80;2.97;;;;;;;24.39;43.96;65561.97;5070421;28;20204;-52
2023/10/11 11:38:23;;;;;;;5.25;2.65;;;;;;;24.28;42.92;65551.78;5068872;28;20212;-55
2023/10/11 11:41:00;;;;;;;2.50;2.30;;;;;;;24.16;41.58;65539.59;5068916;28;20219;-54
2023/10/11 11:43:38;;;;;;;2.92;2.10;;;;;;;23.68;43.95;65483.22;5069353;28;20261;-54
2023/10/11 11:46:04;;;;;;;3.72;2.47;;;;;;;23.47;44.92;65462.53;5053045;28;20589;-55
2023/10/11 11:48:40;;;;;;;2.97;2.30;;;;;;;23.52;47.55;65470.63;5069953;28;20666;-51
2023/10/11 11:51:13;;;;;;;2.95;2.55;;;;;;;23.64;43.28;65481.91;5070119;28;20212;-54
2023/10/11 11:53:43;;;;;;;3.80;2.90;;;;;;;23.55;47.00;65471.41;5068839;28;20203;-54
2023/10/11 11:56:11;;;;;;;3.35;2.60;;;;;;;23.32;47.10;65447.03;5068668;28;20263;-54
2023/10/11 11:58:45;;;;;;;4.38;2.60;;;;;;;23.61;46.02;65478.03;5069895;28;20209;-54
2023/10/11 12:01:15;;;;;;;3.83;2.63;;;;;;;23.94;45.12;65515.16;5068655;28;20204;-54
2023/10/11 12:03:42;;;;;;;8.95;3.20;;;;;;;23.94;44.82;65515.16;5068877;28;20208;-52
2023/10/11 12:06:23;;;;;;;4.25;2.53;;;;;;;23.85;43.41;65502.63;5069824;28;20267;-52
2023/10/11 12:09:00;;;;;;;2.95;2.30;;;;;;;24.39;43.38;65561.41;5071584;28;20238;-53
2023/10/11 12:11:31;;;;;;;3.13;2.72;;;;;;;24.74;42.98;65603.38;5071977;28;20273;-53
2023/10/11 12:13:58;;;;;;;3.42;2.38;;;;;;;24.99;41.14;65633.69;5073623;28;20189;-52
2023/10/11 12:16:24;;;;;;;4.38;2.55;;;;;;;24.59;41.90;65581.56;5072084;28;20533;-53
2023/10/11 12:18:58;;;;;;;8.63;2.90;;;;;;;24.55;41.53;65582.28;5073544;28;20205;-51
2023/10/11 12:21:24;;;;;;;6.47;2.45;;;;;;;24.38;41.31;65562.88;5071969;28;20222;-54
2023/10/11 12:23:50;;;;;;;2.85;2.58;;;;;;;24.25;41.59;65548.44;5073000;28;20692;-55
2023/10/11 12:26:17;;;;;;;3.85;2.70;;;;;;;24.29;40.85;65553.44;5072927;28;20212;-53
2023/10/11 12:28:44;;;;;;;2.38;2.20;;;;;;;24.35;41.51;65560.09;5072850;28;20232;-52
2023/10/11 12:31:10;;;;;;;8.88;3.28;;;;;;;24.46;42.04;65571.75;5072611;28;20256;-54
2023/10/11 12:33:35;;;;;;;2.47;2.20;;;;;;;24.76;42.50;65605.59;5073246;28;20548;-51
2023/10/11 12:36:05;;;;;;;2.95;2.47;;;;;;;24.98;41.10;65630.00;5073072;28;20201;-53
2023/10/11 12:38:36;;;;;;;4.20;2.63;;;;;;;24.85;41.21;65615.56;5071651;28;20358;-55
2023/10/11 12:41:04;;;;;;;2.38;2.13;;;;;;;25.13;41.27;65643.50;5055000;28;20666;-54
2023/10/11 12:43:30;;;;;;;5.10;2.42;;;;;;;25.11;40.98;65643.31;5081159;22;20361;-54
2023/10/11 12:45:55;;;;;;;4.70;2.67;;;;;;;24.87;39.36;65615.22;5092561;28;20236;-54
2023/10/11 12:48:20;;;;;;;3.95;2.67;;;;;;;24.73;39.65;65601.72;5093017;28;20204;-55
2023/10/11 12:50:48;;;;;;;3.40;2.60;;;;;;;24.73;39.34;65602.25;5092631;28;20402;-56
2023/10/11 12:53:14;;;;;;;4.05;2.40;;;;;;;24.51;40.47;65574.72;5092738;28;20290;-54
2023/10/11 12:55:51;;;;;;;3.50;2.60;;;;;;;24.06;40.63;65528.50;5074512;28;20590;-54
2023/10/11 12:58:19;;;;;;;7.05;2.90;;;;;;;23.63;41.71;65480.81;5075161;28;20219;-54
2023/10/11 13:00:59;;;;;;;4.05;2.60;;;;;;;23.32;42.11;65447.03;5092495;28;20189;-55